Time;durP1;ratioP1;P1;durP2;ratioP2;P2;SDS_P1;SDS_P2;PMS_P1;PMS_P2;Temp;Humidity;BMP_temperature;BMP_pressure;BME280_temperature;BME280_humidity;BME280_pressure;Samples;Min_cycle;Max_cycle;Signal;HPM_P1;HPM_P2
2022/04/23 00:00:21;;;;;;;29.45;20.13;;;;;;;8.23;78.54;98138.94;4989659;28;20354;-53
2022/04/23 00:02:47;;;;;;;27.60;18.88;;;;;;;8.16;78.81;98141.84;4995256;28;20385;-51
2022/04/23 00:05:12;;;;;;;30.30;18.98;;;;;;;8.04;79.07;98135.03;4996755;28;20487;-50
2022/04/23 00:07:38;;;;;;;30.25;19.08;;;;;;;7.93;79.80;98134.94;4993688;28;20033;-50
2022/04/23 00:10:04;;;;;;;26.75;19.25;;;;;;;7.93;79.65;98134.13;4991534;28;20041;-52
2022/04/23 00:12:30;;;;;;;31.83;20.50;;;;;;;7.77;80.36;98130.50;4988595;28;20137;-53
2022/04/23 00:14:55;;;;;;;31.63;19.27;;;;;;;7.83;80.41;98139.38;4995183;28;20027;-51
2022/04/23 00:17:21;;;;;;;29.73;19.73;;;;;;;7.99;79.05;98139.28;4992869;28;20042;-49
2022/04/23 00:19:47;;;;;;;28.90;19.42;;;;;;;8.11;78.94;98143.63;4990042;28;20029;-53
2022/04/23 00:22:13;;;;;;;28.27;18.70;;;;;;;8.11;78.68;98140.97;4989678;28;20057;-51
2022/04/23 00:24:38;;;;;;;32.72;18.75;;;;;;;8.05;78.50;98142.00;4998367;28;20026;-53
2022/04/23 00:27:04;;;;;;;28.80;19.88;;;;;;;7.91;79.17;98142.41;4988860;28;20049;-50
2022/04/23 00:29:30;;;;;;;33.95;19.67;;;;;;;7.76;79.30;98129.72;4988859;28;20058;-51
2022/04/23 00:31:55;;;;;;;30.50;18.83;;;;;;;7.79;79.85;98139.06;4988190;28;20050;-50
2022/04/23 00:34:20;;;;;;;29.35;18.80;;;;;;;7.83;80.17;98140.16;4989076;28;20041;-52
2022/04/23 00:36:46;;;;;;;30.33;19.75;;;;;;;7.75;80.10;98129.94;4992954;28;20036;-53
2022/04/23 00:39:11;;;;;;;32.47;19.63;;;;;;;7.89;78.80;98136.50;4995585;28;20397;-52
2022/04/23 00:41:52;;;;;;;32.65;18.67;;;;;;;7.77;79.40;98127.84;4995133;28;20059;-51
2022/04/23 00:44:17;;;;;;;35.75;19.60;;;;;;;7.65;79.98;98137.84;4992495;28;20072;-52
2022/04/23 00:46:43;;;;;;;26.90;18.50;;;;;;;7.50;80.49;98133.94;4987915;28;20065;-52
2022/04/23 00:49:08;;;;;;;28.83;18.70;;;;;;;7.55;80.79;98134.00;4977206;28;20065;-53
2022/04/23 00:51:34;;;;;;;29.48;18.50;;;;;;;7.60;81.91;98132.47;4992972;28;20327;-52
2022/04/23 00:54:04;;;;;;;31.52;19.20;;;;;;;7.51;80.95;98132.06;4986768;28;20238;-50
2022/04/23 00:56:29;;;;;;;32.87;18.87;;;;;;;7.38;81.27;98127.94;4992141;28;20038;-51
2022/04/23 00:58:55;;;;;;;26.67;17.88;;;;;;;7.35;82.38;98128.44;4971868;28;20658;-50
2022/04/23 01:01:23;;;;;;;31.88;19.58;;;;;;;7.37;82.56;98126.34;4989540;28;20547;-56
2022/04/23 01:03:49;;;;;;;28.98;18.40;;;;;;;7.52;80.79;98131.84;4986695;28;20116;-52
2022/04/23 01:06:15;;;;;;;33.92;19.55;;;;;;;7.61;80.03;98128.72;4990919;28;20044;-51
2022/04/23 01:08:40;;;;;;;30.40;20.05;;;;;;;7.70;79.59;98137.91;5004038;28;20022;-52
2022/04/23 01:11:06;;;;;;;30.90;18.45;;;;;;;7.76;79.14;98128.88;4989504;28;20354;-50
2022/04/23 01:13:32;;;;;;;30.52;19.67;;;;;;;7.70;79.18;98133.38;4987881;28;20377;-49
2022/04/23 01:16:06;;;;;;;30.10;19.17;;;;;;;7.78;78.85;98126.78;4986190;28;20057;-53
2022/04/23 01:18:32;;;;;;;28.13;18.67;;;;;;;7.81;78.88;98131.59;4994825;28;20065;-51
2022/04/23 01:20:59;;;;;;;36.13;21.08;;;;;;;7.85;78.74;98132.72;4991867;28;20042;-52
2022/04/23 01:23:24;;;;;;;29.02;18.38;;;;;;;7.80;78.68;98122.00;4997062;28;20507;-52
2022/04/23 01:25:52;;;;;;;30.23;19.70;;;;;;;7.76;78.83;98128.88;4997189;28;20092;-50
2022/04/23 01:28:21;;;;;;;33.58;19.27;;;;;;;7.72;79.06;98125.94;4987795;28;21223;-50
2022/04/23 01:30:53;;;;;;;33.58;20.50;;;;;;;7.69;79.10;98122.97;4991898;28;20463;-52
2022/04/23 01:33:19;;;;;;;35.78;20.17;;;;;;;7.66;79.33;98120.78;4992615;28;20505;-53
2022/04/23 01:35:45;;;;;;;30.92;18.90;;;;;;;7.65;79.40;98119.19;4991146;28;20066;-53
2022/04/23 01:38:11;;;;;;;31.02;20.00;;;;;;;7.61;79.72;98124.19;4993017;28;20030;-50
2022/04/23 01:40:36;;;;;;;29.90;19.77;;;;;;;7.57;79.79;98120.44;4991273;28;20038;-52
2022/04/23 01:43:02;;;;;;;31.83;19.85;;;;;;;7.57;79.78;98126.56;4990374;28;20433;-53
2022/04/23 01:45:27;;;;;;;30.27;20.05;;;;;;;7.51;80.31;98121.41;4992670;28;20135;-49
2022/04/23 01:47:52;;;;;;;33.20;20.88;;;;;;;7.46;80.38;98124.84;4988395;28;20025;-52
2022/04/23 01:50:18;;;;;;;33.17;20.77;;;;;;;7.39;80.44;98126.91;4986949;28;20349;-52
2022/04/23 01:52:43;;;;;;;30.17;19.40;;;;;;;7.27;80.83;98120.88;4988154;28;20053;-53
2022/04/23 01:55:09;;;;;;;35.83;19.50;;;;;;;7.09;81.52;98124.66;4992938;28;20041;-51
2022/04/23 01:57:34;;;;;;;32.00;20.52;;;;;;;6.95;82.34;98131.38;4994758;28;20153;-53
2022/04/23 02:00:00;;;;;;;33.45;19.83;;;;;;;6.70;83.38;98119.31;4993073;28;20124;-49
2022/04/23 02:02:25;;;;;;;33.85;21.33;;;;;;;6.56;84.11;98131.34;4993486;28;20437;-53
2022/04/23 02:04:51;;;;;;;36.72;20.75;;;;;;;6.46;84.51;98131.97;4993467;28;20018;-51
2022/04/23 02:07:16;;;;;;;39.47;19.95;;;;;;;6.49;85.12;98131.53;4992622;28;20038;-53
2022/04/23 02:09:41;;;;;;;32.65;20.92;;;;;;;6.44;85.02;98121.59;4990923;28;20022;-51
2022/04/23 02:12:07;;;;;;;33.20;21.50;;;;;;;6.56;85.00;98126.00;4993040;28;20069;-53
2022/04/23 02:14:33;;;;;;;34.20;21.80;;;;;;;6.78;84.54;98123.41;5001265;28;20471;-50
2022/04/23 02:16:58;;;;;;;30.85;20.70;;;;;;;6.66;84.09;98118.19;4995047;28;20487;-51
2022/04/23 02:19:24;;;;;;;40.08;21.95;;;;;;;6.74;84.47;98127.59;4995197;28;20041;-50
2022/04/23 02:21:50;;;;;;;36.90;22.08;;;;;;;6.70;84.10;98122.78;4993791;28;20508;-51
2022/04/23 02:24:16;;;;;;;35.95;21.10;;;;;;;6.59;84.05;98126.34;4995279;28;20033;-51
2022/04/23 02:26:41;;;;;;;35.63;22.75;;;;;;;6.55;84.51;98114.56;5001192;28;20480;-50
2022/04/23 02:29:06;;;;;;;38.00;22.00;;;;;;;6.45;84.19;98125.06;4997659;28;20027;-49
2022/04/23 02:31:32;;;;;;;40.05;22.05;;;;;;;6.26;84.87;98127.97;4995350;28;20101;-52
2022/04/23 02:33:57;;;;;;;41.25;22.20;;;;;;;6.07;85.44;98125.78;4991663;28;20082;-51
2022/04/23 02:36:23;;;;;;;40.42;23.75;;;;;;;5.91;86.81;98122.00;4990439;28;20037;-52
2022/04/23 02:38:51;;;;;;;37.83;22.20;;;;;;;5.82;87.21;98116.28;4997460;28;20030;-51
2022/04/23 02:41:16;;;;;;;35.25;20.98;;;;;;;5.84;88.76;98114.16;4998610;28;20066;-52
2022/04/23 02:43:43;;;;;;;37.83;22.70;;;;;;;5.64;88.00;98119.91;4992688;28;20110;-51
2022/04/23 02:46:08;;;;;;;36.50;21.88;;;;;;;5.77;90.98;98114.31;5003992;28;20086;-52
2022/04/23 02:48:35;;;;;;;43.78;24.23;;;;;;;5.71;88.39;98111.78;4992806;28;20062;-50
2022/04/23 02:51:01;;;;;;;35.78;21.98;;;;;;;5.68;87.93;98107.75;4998220;28;20046;-51
2022/04/23 02:53:26;;;;;;;42.35;24.98;;;;;;;5.69;88.13;98098.75;4996153;28;20030;-52
2022/04/23 02:55:56;;;;;;;39.38;23.88;;;;;;;5.67;88.65;98108.81;4997886;28;20539;-50
2022/04/23 02:58:24;;;;;;;46.90;25.63;;;;;;;5.71;89.25;98094.00;4991467;28;20109;-50
2022/04/23 03:00:49;;;;;;;43.20;23.92;;;;;;;5.87;89.93;98096.94;4999938;28;20156;-53
2022/04/23 03:03:15;;;;;;;46.75;26.35;;;;;;;5.77;88.00;98093.03;4994281;28;20034;-52
2022/04/23 03:05:42;;;;;;;45.92;25.23;;;;;;;5.98;88.97;98096.09;4996449;28;20045;-50
2022/04/23 03:08:07;;;;;;;43.30;23.88;;;;;;;6.04;87.59;98097.78;4990803;28;20089;-50
2022/04/23 03:10:33;;;;;;;37.55;22.48;;;;;;;5.74;87.80;98077.59;4990388;28;20046;-51
2022/04/23 03:12:58;;;;;;;41.35;23.05;;;;;;;5.39;87.60;98081.19;4997539;28;20036;-51
2022/04/23 03:15:26;;;;;;;39.35;22.10;;;;;;;5.17;88.36;98088.19;4988790;28;20050;-53
2022/04/23 03:18:02;;;;;;;42.35;23.23;;;;;;;5.04;88.70;98083.97;4990424;28;20045;-53
2022/04/23 03:20:27;;;;;;;43.72;25.02;;;;;;;5.02;90.02;98085.22;4995037;28;20570;-52
2022/04/23 03:22:53;;;;;;;43.85;23.52;;;;;;;5.15;91.24;98084.97;4998020;28;20136;-52
2022/04/23 03:25:18;;;;;;;51.10;26.23;;;;;;;5.14;90.42;98089.47;4991906;28;20034;-50
2022/04/23 03:27:43;;;;;;;49.92;26.38;;;;;;;5.11;90.70;98089.13;4996158;28;20092;-51
2022/04/23 03:30:09;;;;;;;43.83;24.15;;;;;;;5.09;91.40;98091.19;5000782;28;20030;-53
2022/04/23 03:32:34;;;;;;;55.92;27.67;;;;;;;5.17;90.74;98089.00;4990029;28;20560;-49
2022/04/23 03:35:00;;;;;;;56.42;26.27;;;;;;;5.40;92.01;98085.47;4997018;28;20282;-52
2022/04/23 03:37:25;;;;;;;54.00;27.25;;;;;;;5.30;90.92;98087.91;4995177;28;20393;-51
2022/04/23 03:39:51;;;;;;;49.53;28.02;;;;;;;5.36;90.52;98086.97;5000375;28;20033;-52
2022/04/23 03:42:17;;;;;;;48.70;27.55;;;;;;;5.37;91.55;98088.59;4989565;28;20046;-53
2022/04/23 03:44:42;;;;;;;54.67;28.52;;;;;;;5.42;91.38;98090.53;4988394;28;20121;-51
2022/04/23 03:47:08;;;;;;;47.58;26.33;;;;;;;5.24;90.19;98102.16;4994247;28;20039;-53
2022/04/23 03:49:33;;;;;;;53.58;27.70;;;;;;;5.27;90.63;98104.34;4997550;28;20029;-51
2022/04/23 03:51:59;;;;;;;53.33;28.23;;;;;;;5.27;91.59;98099.03;4993123;28;20587;-51
2022/04/23 03:54:25;;;;;;;61.50;28.55;;;;;;;5.48;92.61;98108.19;4994293;28;20087;-51
2022/04/23 03:56:50;;;;;;;52.08;28.05;;;;;;;5.47;92.08;98103.13;4993416;28;20042;-53
2022/04/23 03:59:20;;;;;;;62.78;30.08;;;;;;;5.54;92.36;98098.44;4995937;28;20037;-53
2022/04/23 04:01:47;;;;;;;45.88;26.60;;;;;;;5.40;90.20;98096.09;4989426;28;20142;-53
2022/04/23 04:04:14;;;;;;;52.15;27.33;;;;;;;5.22;90.80;98090.13;4993665;28;20073;-52
2022/04/23 04:06:39;;;;;;;45.55;26.33;;;;;;;5.13;90.11;98092.34;4997066;28;20436;-50
2022/04/23 04:09:05;;;;;;;51.30;27.13;;;;;;;5.06;91.46;98094.34;4989061;28;20042;-51
2022/04/23 04:12:01;;;;;;;52.33;28.63;;;;;;;5.35;92.54;98098.66;4993864;28;20120;-51
2022/04/23 04:14:16;;;;;;;58.88;30.45;;;;;;;5.53;92.44;98105.63;5000599;28;20499;-51
2022/04/23 04:16:41;;;;;;;59.95;30.20;;;;;;;5.46;91.66;98101.50;4993510;28;20049;-50
2022/04/23 04:19:07;;;;;;;55.22;28.88;;;;;;;5.38;91.41;98100.81;4993826;28;20034;-49
2022/04/23 04:21:32;;;;;;;53.13;29.42;;;;;;;5.35;91.34;98090.66;4993188;28;20039;-50
2022/04/23 04:23:58;;;;;;;57.95;28.63;;;;;;;5.46;92.08;98096.97;4991969;28;20035;-49
2022/04/23 04:26:24;;;;;;;60.75;31.23;;;;;;;5.62;91.38;98096.25;5000776;28;20526;-52
2022/04/23 04:28:49;;;;;;;55.08;29.63;;;;;;;5.75;91.68;98099.66;5000466;28;20077;-50
2022/04/23 04:33:58;;;;;;;53.72;28.20;;;;;;;5.44;91.42;98093.75;4988657;28;20112;-50
2022/04/23 04:36:24;;;;;;;55.40;29.50;;;;;;;5.70;91.96;98103.03;4992257;28;20505;-50
2022/04/23 04:38:49;;;;;;;50.88;27.60;;;;;;;5.89;90.41;98100.16;4999050;28;20033;-49
2022/04/23 04:41:15;;;;;;;51.92;27.45;;;;;;;6.25;89.20;98099.72;4994938;28;20457;-50
2022/04/23 04:43:41;;;;;;;50.78;28.38;;;;;;;6.39;88.10;98104.72;4993889;28;20046;-53
2022/04/23 04:46:08;;;;;;;50.13;27.90;;;;;;;6.79;85.92;98117.03;4992826;28;20492;-52
2022/04/23 04:48:33;;;;;;;52.30;28.98;;;;;;;7.06;84.19;98103.81;4995915;28;20133;-50
2022/04/23 04:50:59;;;;;;;50.50;26.67;;;;;;;7.35;82.25;98104.44;4991644;28;20702;-50
2022/04/23 04:53:24;;;;;;;52.67;29.92;;;;;;;6.53;86.21;98103.34;4994046;28;20121;-52
2022/04/23 04:55:50;;;;;;;49.75;27.75;;;;;;;7.18;84.12;98103.69;4991221;28;20053;-53
2022/04/23 04:58:15;;;;;;;48.75;25.85;;;;;;;7.65;82.47;98108.50;4988180;28;20034;-51
2022/04/23 05:00:40;;;;;;;52.85;27.38;;;;;;;7.62;82.81;98107.16;4992412;28;20419;-51
2022/04/23 05:03:06;;;;;;;49.67;26.83;;;;;;;8.51;78.16;98115.72;4988662;28;20089;-50
2022/04/23 05:05:31;;;;;;;40.78;24.63;;;;;;;8.76;75.26;98115.91;4993155;28;20042;-52
2022/04/23 05:07:56;;;;;;;42.22;24.10;;;;;;;8.11;76.76;98123.13;4995467;28;20037;-51
2022/04/23 05:10:22;;;;;;;44.33;24.88;;;;;;;7.95;78.55;98126.69;4999140;28;20050;-52
2022/04/23 05:12:47;;;;;;;38.83;23.88;;;;;;;9.08;74.46;98125.69;4986640;28;20170;-52
2022/04/23 05:15:13;;;;;;;41.90;24.27;;;;;;;9.24;72.75;98122.03;4994298;28;20144;-50
2022/04/23 05:17:39;;;;;;;41.38;24.42;;;;;;;10.01;69.94;98124.94;4993686;28;20116;-51
2022/04/23 05:20:05;;;;;;;39.10;23.88;;;;;;;10.27;70.23;98133.00;4997175;28;20092;-56
2022/04/23 05:22:31;;;;;;;39.38;23.48;;;;;;;10.88;67.15;98124.94;4992795;28;20038;-51
2022/04/23 05:24:57;;;;;;;37.85;22.52;;;;;;;10.23;68.17;98131.94;4986768;28;20080;-51
2022/04/23 05:27:25;;;;;;;38.38;22.83;;;;;;;10.92;64.55;98126.03;4989629;28;20046;-53
2022/04/23 05:29:51;;;;;;;37.47;22.80;;;;;;;11.09;64.65;98128.41;4988024;28;20038;-51
2022/04/23 05:32:16;;;;;;;38.55;23.27;;;;;;;12.28;61.48;98124.06;4990352;28;20367;-53
2022/04/23 05:34:43;;;;;;;34.05;21.48;;;;;;;11.96;64.02;98127.25;4994560;28;20065;-51
2022/04/23 05:37:08;;;;;;;34.40;21.30;;;;;;;13.31;59.45;98126.63;4987220;28;20485;-51
2022/04/23 05:39:34;;;;;;;34.75;22.08;;;;;;;13.82;56.77;98125.97;4996535;28;20050;-53
2022/04/23 05:41:59;;;;;;;31.17;21.63;;;;;;;14.58;55.21;98123.25;4994743;28;20066;-49
2022/04/23 05:44:25;;;;;;;31.55;20.95;;;;;;;14.20;55.64;98128.66;4994288;28;20025;-50
2022/04/23 05:46:50;;;;;;;33.28;21.73;;;;;;;15.04;53.32;98123.22;4991748;28;20045;-50
2022/04/23 05:49:15;;;;;;;32.45;21.58;;;;;;;15.95;51.07;98127.13;4993045;28;20034;-53
2022/04/23 05:51:41;;;;;;;26.58;19.05;;;;;;;15.54;52.15;98127.94;4987110;28;20408;-51
2022/04/23 05:54:06;;;;;;;27.92;19.25;;;;;;;15.59;51.67;98125.13;4987398;28;20153;-54
2022/04/23 05:56:32;;;;;;;26.95;19.02;;;;;;;15.64;51.82;98130.41;4996004;28;20037;-50
2022/04/23 05:58:57;;;;;;;26.23;18.05;;;;;;;15.99;51.08;98136.19;4995102;28;20022;-50
2022/04/23 06:01:22;;;;;;;27.33;18.05;;;;;;;15.69;53.04;98133.03;4991301;28;20050;-52
2022/04/23 06:03:48;;;;;;;25.13;18.00;;;;;;;16.55;50.19;98126.78;4986255;28;20045;-50
2022/04/23 06:06:13;;;;;;;24.23;16.95;;;;;;;16.43;50.68;98131.94;4990098;28;20390;-52
2022/04/23 06:08:42;;;;;;;22.15;16.83;;;;;;;17.00;49.87;98134.88;4987164;28;20497;-51
2022/04/23 06:11:07;;;;;;;25.10;16.70;;;;;;;16.46;51.59;98128.63;4987258;28;20125;-50
2022/04/23 06:13:33;;;;;;;19.60;14.52;;;;;;;15.98;51.34;98129.19;4987287;28;20030;-53
2022/04/23 06:15:58;;;;;;;20.55;14.52;;;;;;;16.31;50.36;98127.06;4992676;28;20046;-51
2022/04/23 06:18:25;;;;;;;20.45;14.40;;;;;;;15.18;53.31;98128.66;4988019;28;20037;-50
2022/04/23 06:20:50;;;;;;;18.60;13.82;;;;;;;15.44;52.84;98125.44;4991854;28;20073;-52
2022/04/23 06:23:16;;;;;;;18.05;14.30;;;;;;;16.03;50.91;98134.50;4993790;28;20388;-50
2022/04/23 06:25:41;;;;;;;19.85;13.27;;;;;;;16.45;49.92;98132.44;4995636;28;20038;-53
2022/04/23 06:28:10;;;;;;;17.77;13.52;;;;;;;16.97;48.62;98138.19;4993201;28;20042;-51
2022/04/23 06:30:36;;;;;;;16.35;12.35;;;;;;;16.92;49.01;98134.81;5009486;28;20100;-51
2022/04/23 06:33:01;;;;;;;15.15;11.60;;;;;;;18.60;45.73;98141.88;4986933;28;20495;-53
2022/04/23 06:35:27;;;;;;;17.38;12.95;;;;;;;14.59;54.56;98135.63;4996619;28;20049;-51
2022/04/23 06:37:54;;;;;;;17.17;12.05;;;;;;;16.43;51.13;98139.25;4994836;28;20422;-50
2022/04/23 06:40:19;;;;;;;14.85;11.02;;;;;;;15.66;52.52;98143.63;4991319;28;20027;-52
2022/04/23 06:42:45;;;;;;;14.50;10.98;;;;;;;15.96;51.88;98136.81;4993461;28;20072;-53
2022/04/23 06:45:10;;;;;;;13.60;10.55;;;;;;;14.34;55.61;98137.59;4985878;28;20077;-54
2022/04/23 06:47:36;;;;;;;14.57;10.77;;;;;;;15.50;53.25;98149.34;4989794;28;20026;-51
2022/04/23 06:50:01;;;;;;;14.20;10.60;;;;;;;14.07;56.80;98150.97;4996642;28;20476;-53
2022/04/23 06:52:27;;;;;;;14.43;11.38;;;;;;;14.09;57.62;98144.19;4992910;28;20033;-51
2022/04/23 06:54:54;;;;;;;16.08;11.25;;;;;;;12.38;62.80;98156.25;4986942;28;20026;-53
2022/04/23 06:57:23;;;;;;;15.77;11.52;;;;;;;13.68;59.51;98143.94;4993156;28;20081;-49
2022/04/23 06:59:49;;;;;;;39.70;12.45;;;;;;;15.45;54.72;98151.34;4992629;28;20029;-50
2022/04/23 07:02:15;;;;;;;18.25;10.02;;;;;;;15.60;53.18;98144.81;4996367;28;20038;-52
2022/04/23 07:04:40;;;;;;;29.40;10.20;;;;;;;14.83;55.55;98140.91;4992975;28;20469;-51
2022/04/23 07:07:06;;;;;;;14.65;10.00;;;;;;;16.24;52.12;98155.66;4991775;28;20046;-50
2022/04/23 07:09:31;;;;;;;23.95;9.88;;;;;;;15.31;53.85;98151.34;4990861;28;20030;-52
2022/04/23 07:11:58;;;;;;;11.60;9.18;;;;;;;15.88;52.73;98161.84;4987187;28;20500;-54
2022/04/23 07:14:24;;;;;;;12.20;8.80;;;;;;;15.80;52.60;98154.44;4993546;28;20030;-51
2022/04/23 07:16:49;;;;;;;11.93;9.30;;;;;;;15.00;54.72;98161.91;5001688;28;20041;-50
2022/04/23 07:19:15;;;;;;;11.23;8.98;;;;;;;14.35;55.01;98160.78;4997242;28;20030;-52
2022/04/23 07:21:40;;;;;;;44.10;11.57;;;;;;;15.06;53.82;98152.63;4995791;28;20049;-49
2022/04/23 07:24:08;;;;;;;13.70;9.80;;;;;;;15.51;52.79;98150.16;4989624;28;20034;-52
2022/04/23 07:26:34;;;;;;;12.80;9.50;;;;;;;16.87;50.26;98156.59;4988828;28;20030;-52
2022/04/23 07:29:00;;;;;;;11.32;8.80;;;;;;;16.15;51.14;98150.19;4996211;28;20038;-49
2022/04/23 07:31:26;;;;;;;12.38;9.63;;;;;;;14.30;56.00;98147.38;4988857;28;20512;-50
2022/04/23 07:39:21;;;;;;;13.52;9.18;;;;;;;15.83;51.66;98149.25;4999190;28;20045;-48
2022/04/23 07:41:47;;;;;;;16.70;8.80;;;;;;;16.18;51.46;98155.75;4989279;28;20455;-49
2022/04/23 07:44:12;;;;;;;11.13;8.73;;;;;;;15.87;52.23;98154.84;4996293;28;20038;-51
2022/04/23 07:46:39;;;;;;;12.73;8.75;;;;;;;15.30;54.24;98142.47;5000523;28;20481;-49
2022/04/23 07:49:04;;;;;;;11.63;8.45;;;;;;;16.07;52.75;98154.38;4997606;28;20334;-50
2022/04/23 07:51:30;;;;;;;13.27;8.95;;;;;;;15.59;53.26;98149.44;4992991;28;20057;-54
2022/04/23 07:53:55;;;;;;;12.15;8.15;;;;;;;15.03;54.62;98153.22;4998445;28;20026;-51
2022/04/23 07:56:21;;;;;;;11.88;8.88;;;;;;;14.77;55.41;98158.25;4995263;28;20042;-53
2022/04/23 07:58:46;;;;;;;12.02;8.63;;;;;;;15.04;55.08;98144.81;4993456;28;20030;-52
2022/04/23 08:01:12;;;;;;;12.48;8.32;;;;;;;14.79;54.62;98137.19;4994997;28;20066;-49
2022/04/23 08:03:37;;;;;;;14.25;8.90;;;;;;;15.22;54.01;98139.63;5000168;28;20030;-52
2022/04/23 08:06:03;;;;;;;12.93;9.10;;;;;;;15.39;53.13;98139.06;4998946;28;20042;-53
2022/04/23 08:08:28;;;;;;;12.95;8.77;;;;;;;14.75;54.94;98136.16;4990554;28;20105;-54
2022/04/23 08:10:53;;;;;;;11.57;8.35;;;;;;;14.60;56.56;98134.53;4987154;28;20042;-52
2022/04/23 08:13:20;;;;;;;10.77;8.18;;;;;;;15.77;52.74;98142.34;4992517;28;20038;-53
2022/04/23 08:15:46;;;;;;;9.60;7.20;;;;;;;13.57;58.25;98143.25;4992887;28;20515;-52
2022/04/23 08:18:12;;;;;;;12.25;8.07;;;;;;;14.29;57.06;98140.38;4989850;28;20088;-51
2022/04/23 08:20:41;;;;;;;10.77;8.20;;;;;;;14.00;57.38;98133.28;4997580;28;20038;-50
2022/04/23 08:23:06;;;;;;;11.73;7.70;;;;;;;15.29;54.22;98135.44;4994509;28;20045;-51
2022/04/23 08:25:32;;;;;;;10.63;7.55;;;;;;;14.82;54.74;98131.97;4991207;28;20038;-50
2022/04/23 08:30:41;;;;;;;10.73;7.47;;;;;;;15.21;54.13;98133.44;4989172;28;20052;-52
2022/04/23 08:33:07;;;;;;;14.27;9.18;;;;;;;15.01;54.72;98128.44;4992976;28;20026;-50
2022/04/23 08:35:35;;;;;;;13.50;8.65;;;;;;;15.41;53.61;98131.44;4997436;28;20114;-52
2022/04/23 08:38:00;;;;;;;12.30;7.90;;;;;;;15.61;53.04;98124.84;4994320;28;20044;-50
2022/04/23 08:40:34;;;;;;;9.98;7.75;;;;;;;14.74;54.28;98119.19;4997078;28;20408;-53
2022/04/23 08:42:59;;;;;;;10.75;7.82;;;;;;;15.06;53.72;98133.75;4993558;28;20038;-53
2022/04/23 08:45:25;;;;;;;10.80;7.82;;;;;;;15.57;53.58;98129.22;4993326;28;20126;-53
2022/04/23 08:47:50;;;;;;;14.10;8.43;;;;;;;16.42;52.01;98133.03;4991399;28;20425;-50
2022/04/23 08:50:15;;;;;;;12.98;7.88;;;;;;;15.21;53.28;98138.84;4986646;28;20064;-53
2022/04/23 08:52:41;;;;;;;12.07;8.98;;;;;;;15.02;54.95;98124.63;4989991;28;20026;-51
2022/04/23 08:55:08;;;;;;;11.98;7.90;;;;;;;15.67;53.28;98124.41;4995154;28;20052;-54
2022/04/23 08:57:33;;;;;;;12.30;8.35;;;;;;;15.53;53.49;98126.34;4996787;28;20025;-49
2022/04/23 08:59:59;;;;;;;10.68;7.90;;;;;;;16.06;52.32;98139.28;4996939;28;20488;-51
2022/04/23 09:02:29;;;;;;;20.13;7.88;;;;;;;15.37;53.34;98131.25;4986534;28;20639;-52
2022/04/23 09:04:54;;;;;;;11.38;7.30;;;;;;;15.09;53.91;98128.53;4996308;28;20580;-53
2022/04/23 09:07:24;;;;;;;11.15;8.30;;;;;;;15.35;54.17;98124.53;4987341;28;20058;-51
2022/04/23 09:09:50;;;;;;;11.73;7.97;;;;;;;15.20;53.75;98131.03;4992112;28;20040;-51
2022/04/23 09:12:17;;;;;;;9.95;7.53;;;;;;;15.60;53.19;98129.44;4994644;28;20038;-51
2022/04/23 09:14:44;;;;;;;15.88;7.90;;;;;;;15.83;51.81;98114.13;4997630;28;20388;-53
2022/04/23 09:23:39;;;;;;;10.55;7.53;;;;;;;15.96;51.80;98115.97;5000338;28;20083;-53
2022/04/23 09:25:44;;;;;;;11.07;7.70;;;;;;;16.18;51.83;98120.63;4995137;28;20508;-53
2022/04/23 09:28:15;;;;;;;11.27;7.28;;;;;;;14.76;55.18;98121.59;4990590;28;20153;-51
2022/04/23 09:30:41;;;;;;;10.98;7.72;;;;;;;14.89;54.64;98116.22;4991342;28;20395;-52
2022/04/23 09:33:06;;;;;;;10.80;8.10;;;;;;;15.96;52.50;98110.56;4995828;28;20038;-54
2022/04/23 09:35:32;;;;;;;10.45;8.18;;;;;;;15.84;52.77;98109.50;4996847;28;20042;-53
2022/04/23 09:38:13;;;;;;;10.73;7.80;;;;;;;16.36;51.66;98118.06;4996024;28;20025;-52
2022/04/23 09:40:38;;;;;;;9.52;7.38;;;;;;;16.00;51.98;98110.78;4977912;28;20038;-51
2022/04/23 09:43:08;;;;;;;10.10;7.97;;;;;;;16.31;51.97;98112.75;4989975;28;20127;-52
2022/04/23 09:45:39;;;;;;;9.90;7.45;;;;;;;16.06;52.03;98114.97;4990016;28;20145;-52
2022/04/23 09:48:10;;;;;;;10.68;6.85;;;;;;;15.81;52.15;98112.84;5001041;28;20045;-52
2022/04/23 09:50:39;;;;;;;10.77;6.80;;;;;;;15.98;51.82;98107.59;4995198;28;20042;-50
2022/04/23 09:53:12;;;;;;;9.05;6.80;;;;;;;15.85;53.19;98113.81;4992719;28;20769;-51
2022/04/23 09:55:37;;;;;;;15.40;7.18;;;;;;;16.10;51.04;98129.47;4999776;28;20056;-51
2022/04/23 09:58:09;;;;;;;10.07;7.00;;;;;;;16.18;51.19;98111.72;4990355;28;20030;-50
2022/04/23 10:00:36;;;;;;;8.40;6.30;;;;;;;16.01;50.96;98114.28;4995929;28;20132;-49
2022/04/23 10:03:01;;;;;;;8.48;6.63;;;;;;;16.65;50.00;98116.78;4990239;28;20152;-49
2022/04/23 10:05:27;;;;;;;8.75;5.68;;;;;;;15.95;51.14;98125.19;4990726;28;20500;-52
2022/04/23 10:07:52;;;;;;;8.85;6.97;;;;;;;16.32;51.22;98117.06;4979479;28;20037;-52
2022/04/23 10:10:18;;;;;;;11.23;7.57;;;;;;;16.51;50.31;98120.38;4991008;28;20037;-51
2022/04/23 10:12:44;;;;;;;10.80;7.85;;;;;;;16.35;50.02;98102.94;4991938;28;20031;-50
2022/04/23 10:15:09;;;;;;;9.93;7.22;;;;;;;15.92;51.66;98117.69;4993055;28;20045;-52
2022/04/23 10:17:35;;;;;;;11.88;7.78;;;;;;;15.69;51.81;98111.44;4986088;28;20023;-52
2022/04/23 10:20:00;;;;;;;14.07;7.53;;;;;;;15.93;51.31;98107.69;4985936;28;20267;-51
2022/04/23 10:22:34;;;;;;;13.98;8.80;;;;;;;16.04;51.65;98108.25;4968588;28;20536;-52
2022/04/23 10:25:17;;;;;;;9.68;7.60;;;;;;;15.79;51.30;98112.31;4994940;28;20070;-51
2022/04/23 10:27:44;;;;;;;11.43;7.80;;;;;;;15.35;53.20;98105.66;5015032;28;20092;-51
2022/04/23 10:30:10;;;;;;;10.20;6.55;;;;;;;15.35;52.45;98102.94;4975293;28;20099;-49
2022/04/23 10:32:39;;;;;;;9.65;7.22;;;;;;;14.81;54.76;98114.22;5000023;28;20030;-53
2022/04/23 10:35:31;;;;;;;12.52;8.57;;;;;;;14.48;55.60;98107.19;5001159;28;20447;-49
2022/04/23 10:37:57;;;;;;;11.15;6.55;;;;;;;14.76;54.93;98110.81;4988187;28;20046;-50
2022/04/23 10:40:23;;;;;;;11.95;7.88;;;;;;;14.80;55.02;98112.63;5029450;28;20122;-51
2022/04/23 10:43:04;;;;;;;11.80;8.48;;;;;;;15.12;54.24;98105.53;5004564;28;20038;-51
2022/04/23 10:45:35;;;;;;;12.57;8.52;;;;;;;15.39;54.17;98109.34;4996884;28;20049;-50
2022/04/23 10:48:19;;;;;;;10.80;8.73;;;;;;;14.97;53.88;98100.44;5004012;28;20117;-52
2022/04/23 10:51:20;;;;;;;12.98;9.63;;;;;;;15.52;53.60;98111.22;4999609;28;20042;-50
2022/04/23 10:53:49;;;;;;;10.55;8.07;;;;;;;15.63;53.57;98109.13;4989888;28;20034;-52
2022/04/23 10:56:19;;;;;;;13.40;8.68;;;;;;;16.33;51.73;98100.53;4997212;28;20137;-51
2022/04/23 10:58:44;;;;;;;11.48;8.18;;;;;;;15.74;52.28;98097.03;4993483;28;20049;-51
2022/04/23 11:01:27;;;;;;;10.10;7.28;;;;;;;15.95;51.72;98108.19;4989724;28;20524;-53
2022/04/23 11:03:59;;;;;;;12.32;7.72;;;;;;;15.92;52.12;98097.97;4995348;28;20030;-51
2022/04/23 11:12:34;;;;;;;9.55;7.38;;;;;;;15.32;53.07;98107.03;5004296;28;20046;-52
2022/04/23 11:15:00;;;;;;;9.30;7.40;;;;;;;15.92;52.35;98100.69;4993776;28;20061;-50
2022/04/23 11:17:30;;;;;;;12.18;8.40;;;;;;;15.56;52.48;98095.25;4992080;28;20108;-53
2022/04/23 11:19:55;;;;;;;10.90;6.82;;;;;;;15.42;53.16;98096.03;5001279;28;20034;-51
2022/04/23 11:22:21;;;;;;;12.32;8.50;;;;;;;15.95;52.52;98086.59;4995599;28;20506;-52
2022/04/23 11:24:51;;;;;;;12.23;7.60;;;;;;;16.03;51.95;98085.84;4997571;28;20036;-50
2022/04/23 11:27:27;;;;;;;10.57;7.70;;;;;;;15.91;51.20;98080.97;4991891;28;20430;-50
2022/04/23 11:29:53;;;;;;;7.90;5.90;;;;;;;15.77;51.93;98076.72;4993989;28;20034;-51
2022/04/23 11:32:26;;;;;;;12.68;8.13;;;;;;;15.89;51.67;98083.19;4991083;28;20150;-51
2022/04/23 11:34:58;;;;;;;10.82;8.23;;;;;;;15.32;53.35;98080.88;4996135;28;20109;-49
2022/04/23 11:37:33;;;;;;;10.75;7.55;;;;;;;15.83;53.31;98094.41;4997633;28;20045;-52
2022/04/23 11:40:09;;;;;;;10.23;7.57;;;;;;;15.46;52.18;98077.34;4992131;28;20507;-51
2022/04/23 11:42:38;;;;;;;7.70;5.80;;;;;;;15.73;50.52;98090.03;4989848;28;20133;-52
2022/04/23 11:45:04;;;;;;;9.15;6.32;;;;;;;16.08;49.88;98077.63;4993769;28;20104;-52